Time;durP1;ratioP1;P1;durP2;ratioP2;P2;SDS_P1;SDS_P2;PMS_P1;PMS_P2;Temp;Humidity;BMP_temperature;BMP_pressure;BME280_temperature;BME280_humidity;BME280_pressure;Samples;Min_cycle;Max_cycle;Signal;HPM_P1;HPM_P2
2021/12/08 00:02:16;;;;;;;3.37;0.70;;;;;;;;;;5051528;28;20035;-89
2021/12/08 00:04:42;;;;;;;1.90;0.60;;;;;;;;;;5051311;28;20029;-90
2021/12/08 00:07:08;;;;;;;0.70;0.40;;;;;;;;;;5061279;28;20032;-89
2021/12/08 00:10:03;;;;;;;0.70;0.47;;;;;;;;;;5058608;28;20021;-90
2021/12/08 00:15:04;;;;;;;0.80;0.30;;;;;;;;;;5052399;28;20082;-89
2021/12/08 00:17:30;;;;;;;2.43;0.50;;;;;;;;;;5051308;28;20028;-89
2021/12/08 00:20:00;;;;;;;1.00;0.50;;;;;;;;;;5051358;28;20032;-90
2021/12/08 00:22:25;;;;;;;2.13;0.60;;;;;;;;;;5043433;28;20079;-89
2021/12/08 00:24:50;;;;;;;1.47;0.40;;;;;;;;;;5050949;28;20434;-90
2021/12/08 00:27:16;;;;;;;1.33;0.63;;;;;;;;;;5059311;28;20070;-90
2021/12/08 00:29:41;;;;;;;1.20;0.50;;;;;;;;;;5056452;28;20451;-89
2021/12/08 00:32:08;;;;;;;1.17;0.85;;;;;;;;;;5050525;28;20021;-90
2021/12/08 00:34:34;;;;;;;1.30;0.57;;;;;;;;;;5051033;28;20017;-90
2021/12/08 00:37:01;;;;;;;1.47;0.60;;;;;;;;;;5043985;28;20093;-90
2021/12/08 00:39:26;;;;;;;1.60;0.40;;;;;;;;;;5061672;28;20086;-89
2021/12/08 00:41:51;;;;;;;0.60;0.40;;;;;;;;;;5064898;28;20020;-90
2021/12/08 00:44:17;;;;;;;0.60;0.43;;;;;;;;;;5056466;28;20024;-90
2021/12/08 00:46:45;;;;;;;1.67;0.45;;;;;;;;;;5054607;28;20025;-89
2021/12/08 00:49:13;;;;;;;1.70;0.50;;;;;;;;;;5054541;28;20107;-89
2021/12/08 00:51:38;;;;;;;1.03;0.60;;;;;;;;;;5076965;28;20103;-89
2021/12/08 00:54:03;;;;;;;4.27;0.80;;;;;;;;;;5050711;28;20052;-89
2021/12/08 00:56:29;;;;;;;2.47;0.80;;;;;;;;;;5054168;28;20099;-89
2021/12/08 00:58:54;;;;;;;2.70;0.60;;;;;;;;;;5054455;28;20104;-89
2021/12/08 01:01:20;;;;;;;1.40;0.70;;;;;;;;;;5054185;28;20028;-89
2021/12/08 01:03:47;;;;;;;1.83;0.50;;;;;;;;;;5054424;28;20021;-90
2021/12/08 01:06:13;;;;;;;4.40;0.90;;;;;;;;;;5054391;28;20039;-90
2021/12/08 01:08:38;;;;;;;4.90;0.70;;;;;;;;;;5079242;28;20116;-89
2021/12/08 01:11:06;;;;;;;4.43;0.70;;;;;;;;;;5087750;28;20439;-89
2021/12/08 01:13:31;;;;;;;5.07;1.17;;;;;;;;;;5054360;28;20025;-89
2021/12/08 01:15:57;;;;;;;3.27;1.00;;;;;;;;;;5087700;28;20384;-89
2021/12/08 01:18:23;;;;;;;6.40;1.10;;;;;;;;;;5087455;28;20032;-89
2021/12/08 01:20:49;;;;;;;5.30;0.90;;;;;;;;;;5061963;28;20036;-89
2021/12/08 01:23:15;;;;;;;10.33;2.60;;;;;;;;;;5053862;28;20025;-89
2021/12/08 01:25:41;;;;;;;5.23;1.20;;;;;;;;;;5053396;28;20037;-89
2021/12/08 01:28:06;;;;;;;5.67;1.30;;;;;;;;;;5087147;28;20021;-89
2021/12/08 01:30:31;;;;;;;4.27;1.20;;;;;;;;;;5086848;28;20152;-89
2021/12/08 01:32:57;;;;;;;3.60;0.90;;;;;;;;;;5055374;28;20457;-89
2021/12/08 01:35:23;;;;;;;5.73;1.10;;;;;;;;;;5053710;28;20025;-89
2021/12/08 01:37:48;;;;;;;5.40;1.10;;;;;;;;;;5061685;28;20036;-89
2021/12/08 01:40:14;;;;;;;4.57;1.03;;;;;;;;;;5053652;28;20104;-89
2021/12/08 01:42:47;;;;;;;5.90;1.70;;;;;;;;;;5053461;28;20021;-89
2021/12/08 01:47:57;;;;;;;3.07;1.00;;;;;;;;;;5048095;28;20047;-89
2021/12/08 01:50:23;;;;;;;6.87;1.37;;;;;;;;;;5053306;28;20020;-89
2021/12/08 01:52:48;;;;;;;6.60;0.93;;;;;;;;;;5053043;28;20028;-89
2021/12/08 01:55:14;;;;;;;7.07;1.33;;;;;;;;;;5053415;28;20047;-88
2021/12/08 01:57:43;;;;;;;5.60;1.40;;;;;;;;;;5053441;28;20021;-89
2021/12/08 02:00:10;;;;;;;7.00;1.17;;;;;;;;;;5066614;28;20078;-89
2021/12/08 02:02:35;;;;;;;4.27;1.40;;;;;;;;;;5054873;28;20051;-89
2021/12/08 02:05:01;;;;;;;5.80;1.57;;;;;;;;;;5061472;28;20021;-89
2021/12/08 02:07:26;;;;;;;5.07;1.27;;;;;;;;;;5053233;28;20074;-89
2021/12/08 02:09:51;;;;;;;3.90;1.03;;;;;;;;;;5061073;28;20047;-89
2021/12/08 02:12:16;;;;;;;4.90;1.10;;;;;;;;;;5054377;28;20023;-89
2021/12/08 02:14:41;;;;;;;10.10;1.53;;;;;;;;;;5044969;28;20017;-89
2021/12/08 02:17:10;;;;;;;4.80;0.93;;;;;;;;;;5061207;28;20027;-89
2021/12/08 02:19:35;;;;;;;4.13;1.03;;;;;;;;;;5045061;28;20033;-89
2021/12/08 02:22:01;;;;;;;6.37;1.27;;;;;;;;;;5052730;28;20468;-89
2021/12/08 02:24:26;;;;;;;7.27;1.03;;;;;;;;;;5085966;28;20029;-89
2021/12/08 02:26:51;;;;;;;8.37;1.30;;;;;;;;;;5077862;28;20065;-88
2021/12/08 02:29:22;;;;;;;5.53;1.10;;;;;;;;;;5052818;28;20384;-89
2021/12/08 02:32:04;;;;;;;6.67;0.90;;;;;;;;;;5052983;28;20099;-89
2021/12/08 02:48:09;;;;;;;3.63;0.90;;;;;;;;;;5046124;28;20036;-89
2021/12/08 02:50:36;;;;;;;5.23;0.90;;;;;;;;;;5052504;28;20009;-89
2021/12/08 02:53:02;;;;;;;4.97;0.90;;;;;;;;;;5055615;28;20454;-89
2021/12/08 02:55:28;;;;;;;12.13;1.30;;;;;;;;;;5063375;28;20380;-89
2021/12/08 02:57:54;;;;;;;5.13;1.17;;;;;;;;;;5062147;28;20020;-89
2021/12/08 03:00:24;;;;;;;5.17;1.20;;;;;;;;;;5052311;28;20032;-89
2021/12/08 03:02:49;;;;;;;6.23;0.90;;;;;;;;;;5052277;28;20032;-89
2021/12/08 03:05:14;;;;;;;8.53;1.20;;;;;;;;;;5084682;28;20443;-89
2021/12/08 03:07:40;;;;;;;2.70;0.40;;;;;;;;;;5085043;28;20025;-89
2021/12/08 03:10:07;;;;;;;6.27;0.90;;;;;;;;;;5052006;28;20086;-89
2021/12/08 03:12:32;;;;;;;4.87;1.10;;;;;;;;;;5052030;28;20036;-89
2021/12/08 03:14:58;;;;;;;5.77;0.80;;;;;;;;;;5051912;28;20021;-89
2021/12/08 03:17:23;;;;;;;7.93;1.20;;;;;;;;;;5051750;28;20392;-89
2021/12/08 03:19:49;;;;;;;5.67;0.63;;;;;;;;;;5059961;28;20032;-89
2021/12/08 03:22:14;;;;;;;8.67;1.00;;;;;;;;;;5051675;28;20430;-89
2021/12/08 03:24:43;;;;;;;11.00;2.03;;;;;;;;;;5058008;28;20028;-89
2021/12/08 03:27:12;;;;;;;7.77;1.10;;;;;;;;;;5052789;28;20029;-89
2021/12/08 03:32:13;;;;;;;4.57;0.60;;;;;;;;;;5061788;28;20069;-89
2021/12/08 03:34:42;;;;;;;3.53;0.90;;;;;;;;;;5051718;28;20080;-89
2021/12/08 03:37:08;;;;;;;5.73;1.07;;;;;;;;;;5061504;28;20439;-89
2021/12/08 03:39:33;;;;;;;3.37;0.70;;;;;;;;;;5058125;28;20028;-89
2021/12/08 03:41:59;;;;;;;7.60;1.00;;;;;;;;;;5084609;28;20032;-89
2021/12/08 03:44:25;;;;;;;4.53;0.83;;;;;;;;;;5052644;28;20487;-89
2021/12/08 03:46:52;;;;;;;4.67;0.77;;;;;;;;;;5051394;28;20087;-89
2021/12/08 03:49:17;;;;;;;7.23;1.17;;;;;;;;;;5059371;28;20052;-89
2021/12/08 03:51:43;;;;;;;7.03;0.87;;;;;;;;;;5051392;28;20060;-89
2021/12/08 03:54:09;;;;;;;6.80;1.03;;;;;;;;;;5051152;28;20035;-89
2021/12/08 03:56:35;;;;;;;4.00;0.70;;;;;;;;;;5051637;28;20031;-89
2021/12/08 03:59:01;;;;;;;4.43;0.77;;;;;;;;;;5051330;28;20107;-89
2021/12/08 04:01:26;;;;;;;12.53;0.97;;;;;;;;;;5050928;28;20027;-89
2021/12/08 04:03:51;;;;;;;3.40;1.10;;;;;;;;;;5051414;28;20021;-89
2021/12/08 04:09:28;;;;;;;3.47;0.67;;;;;;;;;;5042853;28;20045;-89
2021/12/08 04:11:54;;;;;;;7.17;0.97;;;;;;;;;;5057554;28;20440;-89
2021/12/08 04:14:21;;;;;;;15.30;2.03;;;;;;;;;;5052551;28;20064;-89
2021/12/08 04:16:48;;;;;;;6.13;1.07;;;;;;;;;;5053830;28;20021;-89
2021/12/08 04:19:15;;;;;;;10.80;1.10;;;;;;;;;;5063274;28;20426;-89
2021/12/08 04:21:44;;;;;;;7.30;0.90;;;;;;;;;;5080659;28;20063;-89
2021/12/08 04:24:09;;;;;;;11.03;1.10;;;;;;;;;;5055086;28;20037;-90
2021/12/08 04:26:41;;;;;;;9.67;0.90;;;;;;;;;;5055015;28;20051;-89
2021/12/08 04:29:08;;;;;;;7.38;0.68;;;;;;;;;;5063608;28;20032;-89
2021/12/08 04:31:34;;;;;;;8.90;1.30;;;;;;;;;;5057807;28;20028;-89
2021/12/08 04:34:02;;;;;;;11.40;0.97;;;;;;;;;;5066208;28;20020;-89
2021/12/08 04:36:32;;;;;;;7.90;0.80;;;;;;;;;;5048063;28;20719;-89
2021/12/08 04:39:00;;;;;;;7.30;0.90;;;;;;;;;;5088306;28;20025;-89
2021/12/08 04:41:37;;;;;;;7.67;1.53;;;;;;;;;;5087960;28;20017;-89
2021/12/08 04:44:20;;;;;;;7.27;0.90;;;;;;;;;;5054767;28;20056;-89
2021/12/08 04:49:48;;;;;;;8.20;1.10;;;;;;;;;;5056297;28;20029;-89
2021/12/08 04:52:19;;;;;;;14.63;1.60;;;;;;;;;;5051784;28;20039;-89
2021/12/08 05:03:07;;;;;;;14.15;1.45;;;;;;;;;;5051904;28;20028;-89
2021/12/08 05:08:12;;;;;;;8.13;1.67;;;;;;;;;;5055758;28;20108;-89
2021/12/08 05:10:38;;;;;;;11.37;1.30;;;;;;;;;;5062211;28;20476;-89
2021/12/08 05:13:06;;;;;;;10.00;1.10;;;;;;;;;;5055917;28;20075;-89
2021/12/08 05:15:34;;;;;;;16.63;1.57;;;;;;;;;;5087206;28;20027;-90
2021/12/08 05:18:14;;;;;;;8.70;1.30;;;;;;;;;;5062020;28;20415;-89
2021/12/08 05:20:39;;;;;;;9.47;1.90;;;;;;;;;;5054043;28;20035;-89
2021/12/08 05:23:08;;;;;;;11.67;1.53;;;;;;;;;;5054223;28;20021;-89
2021/12/08 05:25:35;;;;;;;7.53;1.30;;;;;;;;;;5082859;28;20025;-89
2021/12/08 05:28:02;;;;;;;15.33;1.60;;;;;;;;;;5053508;28;20033;-89
2021/12/08 05:30:29;;;;;;;9.03;0.90;;;;;;;;;;5045859;28;20484;-89
2021/12/08 05:32:54;;;;;;;8.90;1.10;;;;;;;;;;5062217;28;20075;-89
2021/12/08 05:35:20;;;;;;;9.03;1.57;;;;;;;;;;5054187;28;20488;-89
2021/12/08 05:37:45;;;;;;;12.83;1.63;;;;;;;;;;5053712;28;20024;-89
2021/12/08 05:40:14;;;;;;;9.10;1.17;;;;;;;;;;5054078;28;20025;-89
2021/12/08 05:42:40;;;;;;;6.30;1.20;;;;;;;;;;5079049;28;20052;-89
2021/12/08 05:45:08;;;;;;;13.90;1.03;;;;;;;;;;5086883;28;20032;-89
2021/12/08 05:47:33;;;;;;;8.23;1.40;;;;;;;;;;5061494;28;20025;-90
2021/12/08 05:49:59;;;;;;;6.97;1.07;;;;;;;;;;5061558;28;20059;-89
2021/12/08 05:52:25;;;;;;;10.33;1.47;;;;;;;;;;5061434;28;20013;-89
2021/12/08 05:54:51;;;;;;;11.80;1.43;;;;;;;;;;5045211;28;20381;-89
2021/12/08 05:57:28;;;;;;;6.47;1.40;;;;;;;;;;5086701;28;20024;-89
2021/12/08 05:59:54;;;;;;;8.23;1.13;;;;;;;;;;5078361;28;20431;-89
2021/12/08 06:02:24;;;;;;;15.83;1.80;;;;;;;;;;5052202;28;20033;-89
2021/12/08 06:04:49;;;;;;;12.03;1.40;;;;;;;;;;5053340;28;20067;-89
2021/12/08 06:07:15;;;;;;;7.73;1.40;;;;;;;;;;5082311;28;20457;-89
2021/12/08 06:09:41;;;;;;;8.80;1.00;;;;;;;;;;5041695;28;20033;-89
2021/12/08 06:12:07;;;;;;;10.00;1.40;;;;;;;;;;5053130;28;20017;-89
2021/12/08 06:14:33;;;;;;;8.13;1.30;;;;;;;;;;5054066;28;20111;-89
2021/12/08 06:17:07;;;;;;;4.83;1.17;;;;;;;;;;5061154;28;20055;-89
2021/12/08 06:19:32;;;;;;;6.47;1.47;;;;;;;;;;5053297;28;20057;-89
2021/12/08 06:21:58;;;;;;;9.17;1.53;;;;;;;;;;5060785;28;20351;-89
2021/12/08 06:24:23;;;;;;;9.87;1.23;;;;;;;;;;5052591;28;20052;-89
2021/12/08 06:26:49;;;;;;;8.47;1.07;;;;;;;;;;5053374;28;20036;-89
2021/12/08 06:29:17;;;;;;;9.57;1.60;;;;;;;;;;5086314;28;20483;-89
2021/12/08 06:31:42;;;;;;;4.10;0.80;;;;;;;;;;5053029;28;20025;-89
2021/12/08 06:34:08;;;;;;;8.50;1.10;;;;;;;;;;5052530;28;20495;-89
2021/12/08 06:36:41;;;;;;;7.93;1.20;;;;;;;;;;5054003;28;20440;-89
2021/12/08 06:39:09;;;;;;;5.10;1.00;;;;;;;;;;5051662;28;20024;-90
2021/12/08 06:41:37;;;;;;;6.63;1.63;;;;;;;;;;5052804;28;20104;-89
2021/12/08 06:44:04;;;;;;;11.47;1.30;;;;;;;;;;5052508;28;20029;-90
2021/12/08 06:46:30;;;;;;;9.00;0.97;;;;;;;;;;5052513;28;20045;-89
2021/12/08 06:48:56;;;;;;;3.03;0.70;;;;;;;;;;5052566;28;20420;-89
2021/12/08 06:51:24;;;;;;;8.40;1.10;;;;;;;;;;5085997;28;20052;-89
2021/12/08 06:53:53;;;;;;;6.63;1.00;;;;;;;;;;5052393;28;20103;-89
2021/12/08 06:56:20;;;;;;;9.67;1.30;;;;;;;;;;5060189;28;20071;-89
2021/12/08 06:58:48;;;;;;;7.30;1.00;;;;;;;;;;5052367;28;20389;-89
2021/12/08 07:01:36;;;;;;;7.60;1.13;;;;;;;;;;5051906;28;20024;-90
2021/12/08 07:04:14;;;;;;;10.97;1.57;;;;;;;;;;5052456;28;20071;-89
2021/12/08 07:07:11;;;;;;;3.13;1.00;;;;;;;;;;5071084;28;20107;-90
2021/12/08 07:09:35;;;;;;;7.65;1.48;;;;;;;;;;5053783;28;20553;-90
2021/12/08 07:12:05;;;;;;;8.37;1.17;;;;;;;;;;5051589;28;20028;-89
2021/12/08 07:14:31;;;;;;;9.40;1.30;;;;;;;;;;5053012;28;20023;-89
2021/12/08 07:17:02;;;;;;;9.17;1.20;;;;;;;;;;5052280;28;20017;-89
2021/12/08 07:19:43;;;;;;;10.85;1.30;;;;;;;;;;5051159;28;20024;-89
2021/12/08 07:22:10;;;;;;;9.83;1.00;;;;;;;;;;5077716;28;20033;-88
2021/12/08 07:24:40;;;;;;;8.73;1.30;;;;;;;;;;5082004;28;20479;-89
2021/12/08 07:27:11;;;;;;;7.87;1.30;;;;;;;;;;5046433;28;20032;-89
2021/12/08 07:29:37;;;;;;;11.50;1.20;;;;;;;;;;5040723;28;20572;-89
2021/12/08 07:32:08;;;;;;;6.23;1.33;;;;;;;;;;5051900;28;20075;-88
2021/12/08 07:34:35;;;;;;;7.87;1.13;;;;;;;;;;5051200;28;20024;-88
2021/12/08 07:37:04;;;;;;;6.47;1.07;;;;;;;;;;5046629;28;20025;-89
2021/12/08 07:39:31;;;;;;;7.17;1.13;;;;;;;;;;5079448;28;20490;-89
2021/12/08 07:42:03;;;;;;;8.27;1.10;;;;;;;;;;5051871;28;20020;-89
2021/12/08 07:44:28;;;;;;;6.60;1.33;;;;;;;;;;5052119;28;20049;-89
2021/12/08 07:47:03;;;;;;;8.83;1.30;;;;;;;;;;5051702;28;20021;-90
2021/12/08 07:49:31;;;;;;;5.93;1.13;;;;;;;;;;5053436;28;20063;-89
2021/12/08 07:52:08;;;;;;;5.93;1.20;;;;;;;;;;5045646;28;20020;-89
2021/12/08 07:54:34;;;;;;;4.07;1.10;;;;;;;;;;5071075;28;20358;-89
2021/12/08 07:57:01;;;;;;;5.20;1.30;;;;;;;;;;5044801;28;20075;-89
2021/12/08 07:59:28;;;;;;;6.47;1.30;;;;;;;;;;5051096;28;20013;-89
2021/12/08 08:01:55;;;;;;;6.30;1.50;;;;;;;;;;5079734;28;20017;-89
2021/12/08 08:04:21;;;;;;;7.23;1.20;;;;;;;;;;5051245;28;20024;-88
2021/12/08 08:06:48;;;;;;;7.07;1.10;;;;;;;;;;5076649;28;20021;-89
2021/12/08 08:09:17;;;;;;;6.10;1.20;;;;;;;;;;5061104;28;20384;-89
2021/12/08 08:11:45;;;;;;;8.10;1.17;;;;;;;;;;5051028;28;20380;-89
2021/12/08 08:14:12;;;;;;;10.27;1.23;;;;;;;;;;5084138;28;20472;-89
2021/12/08 08:16:39;;;;;;;7.00;0.87;;;;;;;;;;5084966;28;20024;-89
2021/12/08 08:19:10;;;;;;;5.10;1.40;;;;;;;;;;5057819;28;20119;-89
2021/12/08 08:21:37;;;;;;;3.70;1.00;;;;;;;;;;5053616;28;20025;-89
2021/12/08 08:24:04;;;;;;;3.97;1.27;;;;;;;;;;5051436;28;20027;-89
2021/12/08 08:26:30;;;;;;;6.70;1.33;;;;;;;;;;5051086;28;20052;-88
2021/12/08 08:28:56;;;;;;;8.67;1.90;;;;;;;;;;5076796;28;20049;-90
2021/12/08 08:31:26;;;;;;;5.83;1.10;;;;;;;;;;5053137;28;20116;-90
2021/12/08 08:33:51;;;;;;;4.53;1.10;;;;;;;;;;5052357;28;20443;-90
2021/12/08 08:36:20;;;;;;;4.13;1.20;;;;;;;;;;5051809;28;20017;-90
2021/12/08 08:38:50;;;;;;;7.30;0.97;;;;;;;;;;5051748;28;20442;-90
2021/12/08 08:41:17;;;;;;;2.97;0.70;;;;;;;;;;5047563;28;20423;-90
2021/12/08 08:43:44;;;;;;;5.03;1.10;;;;;;;;;;5051959;28;20037;-90
2021/12/08 08:46:12;;;;;;;3.90;0.80;;;;;;;;;;5051975;28;20119;-90
2021/12/08 08:48:44;;;;;;;9.13;1.30;;;;;;;;;;5051839;28;20028;-90
2021/12/08 08:51:16;;;;;;;3.35;0.80;;;;;;;;;;5052180;28;20028;-90
2021/12/08 08:53:45;;;;;;;8.20;1.00;;;;;;;;;;5068545;28;20049;-90
2021/12/08 08:56:16;;;;;;;7.07;1.40;;;;;;;;;;5052811;28;20020;-90
2021/12/08 08:58:43;;;;;;;10.80;1.60;;;;;;;;;;5044809;28;20469;-90
2021/12/08 09:01:13;;;;;;;6.13;1.17;;;;;;;;;;5051670;28;20384;-90
2021/12/08 09:03:39;;;;;;;8.13;1.13;;;;;;;;;;5061855;28;20031;-90
2021/12/08 09:06:08;;;;;;;9.23;1.37;;;;;;;;;;5064005;28;20025;-90
2021/12/08 09:08:35;;;;;;;8.40;1.20;;;;;;;;;;5088638;28;20465;-90
2021/12/08 09:11:10;;;;;;;5.57;1.33;;;;;;;;;;5055062;28;20024;-90
2021/12/08 09:13:38;;;;;;;7.57;1.03;;;;;;;;;;5055144;28;20009;-90
2021/12/08 09:16:06;;;;;;;9.90;1.10;;;;;;;;;;5071331;28;20375;-90
2021/12/08 09:18:58;;;;;;;6.20;1.07;;;;;;;;;;5088410;28;20036;-90
2021/12/08 09:21:48;;;;;;;3.55;1.10;;;;;;;;;;5095673;28;20025;-90
2021/12/08 09:24:21;;;;;;;4.33;1.00;;;;;;;;;;5032361;28;20036;-90
2021/12/08 09:26:49;;;;;;;16.63;1.37;;;;;;;;;;5051862;28;20033;-90
2021/12/08 09:29:19;;;;;;;9.10;0.73;;;;;;;;;;5055383;28;20028;-91
2021/12/08 09:31:48;;;;;;;11.77;1.23;;;;;;;;;;5094277;28;20027;-90
2021/12/08 09:34:21;;;;;;;5.83;1.10;;;;;;;;;;5052192;28;20028;-90
2021/12/08 09:36:48;;;;;;;7.37;1.10;;;;;;;;;;5054936;28;20380;-90
2021/12/08 09:39:20;;;;;;;5.50;0.80;;;;;;;;;;5055933;28;20056;-90
2021/12/08 09:41:48;;;;;;;5.82;0.82;;;;;;;;;;5054963;28;20032;-90
2021/12/08 09:44:19;;;;;;;4.40;1.00;;;;;;;;;;5054744;28;20033;-90
2021/12/08 09:46:46;;;;;;;7.87;1.20;;;;;;;;;;5054563;28;20542;-90
2021/12/08 09:49:13;;;;;;;6.47;1.20;;;;;;;;;;5054975;28;20021;-90
2021/12/08 09:51:38;;;;;;;3.70;0.90;;;;;;;;;;5061965;28;20017;-90
2021/12/08 09:54:04;;;;;;;5.20;0.73;;;;;;;;;;5054672;28;20021;-86
2021/12/08 09:56:29;;;;;;;5.47;1.00;;;;;;;;;;5053662;28;20033;-86
2021/12/08 09:58:55;;;;;;;4.83;0.80;;;;;;;;;;5053013;28;20036;-85
2021/12/08 10:01:22;;;;;;;5.33;0.97;;;;;;;;;;5084486;28;20103;-86
2021/12/08 10:03:49;;;;;;;8.77;1.10;;;;;;;;;;5053042;28;20384;-86
2021/12/08 10:06:15;;;;;;;6.37;0.80;;;;;;;;;;5080784;28;20013;-86
2021/12/08 10:08:41;;;;;;;1.60;0.90;;;;;;;;;;5052205;28;20936;-85
2021/12/08 10:11:06;;;;;;;6.17;1.30;;;;;;;;;;5055741;28;20066;-86
2021/12/08 10:13:32;;;;;;;7.93;0.80;;;;;;;;;;5046989;28;20033;-86
2021/12/08 10:15:57;;;;;;;4.97;1.10;;;;;;;;;;5078568;28;20059;-86
2021/12/08 10:18:22;;;;;;;8.20;1.07;;;;;;;;;;5052313;28;20025;-86
2021/12/08 10:20:49;;;;;;;8.13;0.90;;;;;;;;;;5052760;28;20079;-86
2021/12/08 10:23:15;;;;;;;6.70;1.00;;;;;;;;;;5053378;28;20063;-87
2021/12/08 10:25:43;;;;;;;5.03;0.87;;;;;;;;;;5052190;28;20055;-86
2021/12/08 10:28:11;;;;;;;7.57;1.20;;;;;;;;;;5061526;28;20488;-86
2021/12/08 10:30:48;;;;;;;8.90;1.20;;;;;;;;;;5052122;28;20021;-86
2021/12/08 10:33:37;;;;;;;5.80;1.10;;;;;;;;;;5055532;28;20021;-86
2021/12/08 10:36:15;;;;;;;5.57;0.80;;;;;;;;;;5080061;28;20024;-86
2021/12/08 10:38:40;;;;;;;6.20;1.10;;;;;;;;;;5051847;28;20464;-86
2021/12/08 10:41:06;;;;;;;3.90;0.80;;;;;;;;;;5076628;28;20026;-86
2021/12/08 10:43:32;;;;;;;3.80;0.73;;;;;;;;;;5050532;28;20025;-87
2021/12/08 10:46:01;;;;;;;7.20;0.83;;;;;;;;;;5052611;28;20060;-87
2021/12/08 10:48:33;;;;;;;4.57;0.87;;;;;;;;;;5051892;28;20073;-86
2021/12/08 10:56:34;;;;;;;5.00;0.90;;;;;;;;;;5060319;28;20020;-86
2021/12/08 10:58:59;;;;;;;9.00;1.10;;;;;;;;;;5055190;28;20085;-86
2021/12/08 11:01:25;;;;;;;3.73;1.10;;;;;;;;;;5051342;28;20017;-86
2021/12/08 11:03:59;;;;;;;9.20;1.80;;;;;;;;;;5082935;28;20035;-86
2021/12/08 11:06:28;;;;;;;6.00;1.00;;;;;;;;;;5053571;28;20021;-86
2021/12/08 11:08:56;;;;;;;6.03;0.90;;;;;;;;;;5053292;28;20436;-85
2021/12/08 11:11:24;;;;;;;5.53;1.20;;;;;;;;;;5052793;28;20431;-86
2021/12/08 11:13:51;;;;;;;8.30;1.10;;;;;;;;;;5051551;28;20024;-86
2021/12/08 11:16:18;;;;;;;3.70;1.00;;;;;;;;;;5076207;28;20040;-86
2021/12/08 11:18:49;;;;;;;5.87;1.50;;;;;;;;;;5077614;28;20529;-85
2021/12/08 11:21:20;;;;;;;5.20;1.27;;;;;;;;;;5059564;28;20025;-85
2021/12/08 11:23:48;;;;;;;4.90;0.90;;;;;;;;;;5076884;28;20052;-85
2021/12/08 11:26:21;;;;;;;9.30;0.90;;;;;;;;;;5043892;28;20040;-86
2021/12/08 11:28:58;;;;;;;4.03;0.80;;;;;;;;;;5054026;28;20103;-85
2021/12/08 11:31:23;;;;;;;3.33;0.63;;;;;;;;;;5049824;28;20468;-85
2021/12/08 11:33:58;;;;;;;2.90;0.70;;;;;;;;;;5051165;28;20052;-86
2021/12/08 11:36:25;;;;;;;1.67;0.50;;;;;;;;;;5050610;28;20106;-86
2021/12/08 11:38:51;;;;;;;2.50;0.73;;;;;;;;;;5051751;28;20021;-85
2021/12/08 11:41:22;;;;;;;2.47;0.90;;;;;;;;;;5051966;28;20048;-85
2021/12/08 11:43:57;;;;;;;8.20;1.20;;;;;;;;;;5052952;28;20527;-85
2021/12/08 11:46:23;;;;;;;3.30;0.50;;;;;;;;;;5071080;28;20025;-85
2021/12/08 11:49:10;;;;;;;7.63;0.73;;;;;;;;;;5078073;28;20079;-87
2021/12/08 11:51:44;;;;;;;2.40;0.60;;;;;;;;;;5049962;28;20021;-85
2021/12/08 11:54:23;;;;;;;4.50;1.10;;;;;;;;;;5050982;28;20029;-86
2021/12/08 11:56:48;;;;;;;3.90;0.93;;;;;;;;;;5057769;28;20444;-87
2021/12/08 11:59:14;;;;;;;0.83;0.37;;;;;;;;;;5046858;28;20060;-86
2021/12/08 12:01:39;;;;;;;4.27;0.60;;;;;;;;;;5056152;28;20025;-84
2021/12/08 12:04:06;;;;;;;4.87;1.53;;;;;;;;;;5057730;28;20491;-85
2021/12/08 12:06:32;;;;;;;5.17;0.87;;;;;;;;;;5060022;28;20108;-85
2021/12/08 12:08:59;;;;;;;3.97;0.73;;;;;;;;;;5081164;28;20041;-84
2021/12/08 12:11:25;;;;;;;2.10;0.87;;;;;;;;;;5077682;28;20063;-85
2021/12/08 12:13:52;;;;;;;0.60;0.40;;;;;;;;;;5057915;28;20028;-84
2021/12/08 12:16:17;;;;;;;2.40;0.57;;;;;;;;;;5057373;28;20013;-86
2021/12/08 12:18:42;;;;;;;1.63;0.67;;;;;;;;;;5049716;28;20025;-86
2021/12/08 12:21:15;;;;;;;3.90;0.70;;;;;;;;;;5050923;28;20032;-86
2021/12/08 12:23:46;;;;;;;2.00;0.83;;;;;;;;;;5058237;28;20044;-86
2021/12/08 12:26:23;;;;;;;2.43;0.67;;;;;;;;;;5050458;28;20476;-85
2021/12/08 12:28:51;;;;;;;4.33;0.80;;;;;;;;;;5055570;28;20123;-85
2021/12/08 12:31:41;;;;;;;2.67;0.47;;;;;;;;;;5057429;28;20162;-86
2021/12/08 12:34:27;;;;;;;5.33;1.43;;;;;;;;;;5070563;28;20025;-85
2021/12/08 12:36:52;;;;;;;0.30;0.20;;;;;;;;;;5052726;28;20037;-85
2021/12/08 12:39:19;;;;;;;0.53;0.20;;;;;;;;;;5062492;28;20029;-85
2021/12/08 12:41:55;;;;;;;3.17;0.68;;;;;;;;;;5053818;28;20025;-85
2021/12/08 12:44:22;;;;;;;1.50;0.50;;;;;;;;;;5077471;28;20098;-85
2021/12/08 12:47:14;;;;;;;2.40;0.87;;;;;;;;;;5058538;28;20017;-85
2021/12/08 12:49:41;;;;;;;8.85;0.60;;;;;;;;;;5054789;28;20388;-85
2021/12/08 12:52:08;;;;;;;9.27;1.73;;;;;;;;;;5062988;28;20127;-86
2021/12/08 12:54:34;;;;;;;1.50;0.60;;;;;;;;;;5062993;28;20530;-84
2021/12/08 12:56:59;;;;;;;2.40;0.83;;;;;;;;;;5053844;28;20025;-84
2021/12/08 12:59:36;;;;;;;0.27;0.07;;;;;;;;;;5056367;28;20082;-84
2021/12/08 13:02:08;;;;;;;1.75;0.40;;;;;;;;;;5060639;28;20036;-84
2021/12/08 13:04:37;;;;;;;0.85;0.30;;;;;;;;;;5054940;28;20021;-84
2021/12/08 13:07:04;;;;;;;3.13;0.82;;;;;;;;;;5053176;28;20384;-84
2021/12/08 13:09:33;;;;;;;0.25;0.20;;;;;;;;;;5053680;28;20408;-84
2021/12/08 13:12:10;;;;;;;0.43;0.20;;;;;;;;;;5054411;28;20104;-85
2021/12/08 13:14:36;;;;;;;0.47;0.47;;;;;;;;;;5080326;28;20020;-84
2021/12/08 13:17:09;;;;;;;1.05;0.43;;;;;;;;;;5080654;28;20124;-84
2021/12/08 13:19:55;;;;;;;0.55;0.30;;;;;;;;;;5081276;28;20034;-87
2021/12/08 13:22:39;;;;;;;1.42;0.73;;;;;;;;;;5060835;28;20013;-90
2021/12/08 13:25:21;;;;;;;3.92;0.80;;;;;;;;;;5054564;28;20384;-85
2021/12/08 13:27:54;;;;;;;4.05;1.15;;;;;;;;;;5063373;28;20071;-84
2021/12/08 13:30:20;;;;;;;4.70;0.80;;;;;;;;;;5054393;28;20400;-85
2021/12/08 13:32:46;;;;;;;7.07;1.00;;;;;;;;;;5081762;28;20032;-83
2021/12/08 13:35:12;;;;;;;6.18;1.05;;;;;;;;;;5060695;28;20027;-84
2021/12/08 13:37:54;;;;;;;2.70;0.77;;;;;;;;;;5052688;28;20119;-83
2021/12/08 13:40:19;;;;;;;3.70;0.80;;;;;;;;;;5080408;28;20116;-85
2021/12/08 13:42:49;;;;;;;3.10;0.88;;;;;;;;;;5055587;28;20111;-85
2021/12/08 13:45:16;;;;;;;2.85;0.90;;;;;;;;;;5052012;28;20024;-85
2021/12/08 13:47:42;;;;;;;5.65;1.15;;;;;;;;;;5050109;28;20037;-85
2021/12/08 13:50:10;;;;;;;6.82;1.02;;;;;;;;;;5050172;28;20017;-86
2021/12/08 13:52:58;;;;;;;2.65;0.85;;;;;;;;;;5052968;28;20100;-86
2021/12/08 13:55:28;;;;;;;0.47;0.15;;;;;;;;;;5049415;28;20116;-87
2021/12/08 13:57:56;;;;;;;3.53;1.00;;;;;;;;;;5051692;28;20037;-86
2021/12/08 14:00:35;;;;;;;2.08;0.82;;;;;;;;;;5051953;28;20023;-85
2021/12/08 14:03:01;;;;;;;8.50;1.23;;;;;;;;;;5052122;28;20029;-86
2021/12/08 14:05:26;;;;;;;1.38;0.75;;;;;;;;;;5084325;28;20473;-85
2021/12/08 14:07:56;;;;;;;3.83;1.03;;;;;;;;;;5051958;28;20025;-86
2021/12/08 14:10:31;;;;;;;1.53;0.83;;;;;;;;;;5051827;28;20021;-86
2021/12/08 14:13:15;;;;;;;5.93;1.27;;;;;;;;;;5059596;28;20096;-84
2021/12/08 14:15:40;;;;;;;1.80;0.30;;;;;;;;;;5065214;28;20017;-85
2021/12/08 14:18:16;;;;;;;2.23;0.73;;;;;;;;;;5049769;28;20023;-85
2021/12/08 14:20:43;;;;;;;4.47;0.70;;;;;;;;;;5057864;28;20052;-85
2021/12/08 14:23:08;;;;;;;6.30;0.97;;;;;;;;;;5061156;28;20024;-85
2021/12/08 14:25:54;;;;;;;3.20;0.68;;;;;;;;;;5051576;28;20047;-84
2021/12/08 14:28:41;;;;;;;1.42;0.80;;;;;;;;;;5051193;28;20571;-84
2021/12/08 14:31:12;;;;;;;9.17;0.97;;;;;;;;;;5083282;28;20021;-85
2021/12/08 14:33:38;;;;;;;3.30;0.93;;;;;;;;;;5051673;28;20028;-85
2021/12/08 14:36:05;;;;;;;2.20;0.70;;;;;;;;;;5052753;28;20146;-85
2021/12/08 14:38:30;;;;;;;7.07;1.25;;;;;;;;;;5081085;28;20026;-85
2021/12/08 14:40:56;;;;;;;7.43;1.02;;;;;;;;;;5059776;28;20385;-85
2021/12/08 14:43:38;;;;;;;7.82;1.10;;;;;;;;;;5051973;28;20475;-85
2021/12/08 14:46:16;;;;;;;5.28;1.35;;;;;;;;;;5047089;28;20113;-85
2021/12/08 14:48:46;;;;;;;7.35;0.77;;;;;;;;;;5052373;28;20029;-85
2021/12/08 14:51:11;;;;;;;3.28;0.85;;;;;;;;;;5057364;28;20021;-86
2021/12/08 14:53:37;;;;;;;9.30;1.10;;;;;;;;;;5050622;28;20021;-85
2021/12/08 14:56:12;;;;;;;4.75;1.00;;;;;;;;;;5084388;28;20503;-83
2021/12/08 14:58:38;;;;;;;7.28;1.10;;;;;;;;;;5081662;28;20112;-83
2021/12/08 15:01:05;;;;;;;4.10;0.95;;;;;;;;;;5059460;28;20053;-83
2021/12/08 15:03:37;;;;;;;5.60;1.02;;;;;;;;;;5061708;28;20031;-83
2021/12/08 15:06:02;;;;;;;3.03;0.90;;;;;;;;;;5049047;28;20094;-83
2021/12/08 15:08:27;;;;;;;4.65;1.40;;;;;;;;;;5052686;28;20017;-83
2021/12/08 15:10:53;;;;;;;3.47;1.05;;;;;;;;;;5058656;28;20021;-83
2021/12/08 15:13:19;;;;;;;8.35;1.45;;;;;;;;;;5052880;28;20025;-84
2021/12/08 15:15:46;;;;;;;11.23;1.85;;;;;;;;;;5056262;28;20021;-84
2021/12/08 15:18:13;;;;;;;8.02;1.30;;;;;;;;;;5079608;28;20021;-85
2021/12/08 15:20:39;;;;;;;5.65;1.52;;;;;;;;;;5059080;28;20491;-85
2021/12/08 15:23:11;;;;;;;4.53;1.40;;;;;;;;;;5043509;28;20089;-85
2021/12/08 15:25:37;;;;;;;3.65;1.30;;;;;;;;;;5052401;28;20111;-85
2021/12/08 15:28:05;;;;;;;4.93;1.20;;;;;;;;;;5059842;28;20121;-86
2021/12/08 15:30:45;;;;;;;5.07;1.00;;;;;;;;;;5052201;28;20041;-86
2021/12/08 15:33:13;;;;;;;1.42;0.55;;;;;;;;;;5076927;28;20021;-86
2021/12/08 15:35:38;;;;;;;6.40;1.10;;;;;;;;;;5088553;28;20365;-86